This is the latest recevied weather packets stored in our database for station/object LRSM. If no packets are shown the sender has not sent any weather packets the latest 10 day(s).
| Time | Temp. | Humidity | Pressure | Rain* | Wind** | Luminosity | Snow |
|---|---|---|---|---|---|---|---|
| 1777957412 | 10° C | 62% | 1016 hPa | - | - | - | - |
| 1777956512 | 10° C | 58% | 1016 hPa | - | - | - | - |
| 1777955612 | 10° C | 58% | 1016 hPa | - | - | - | - |
| 1777954712 | 7.22° C | 71% | 1016 hPa | - | - | - | - |
| 1777953812 | 7.22° C | 71% | 1016 hPa | - | - | - | - |
| 1777952912 | 5° C | 70% | 1016 hPa | - | - | - | - |
| 1777952012 | 5° C | 70% | 1016 hPa | - | - | - | - |
| 1777951112 | 5° C | 76% | 1016 hPa | - | - | - | - |
| 1777950212 | 5° C | 76% | 1016 hPa | - | - | - | - |
| 1777949312 | 5° C | 76% | 1016 hPa | - | - | - | - |
| 1777948412 | 5° C | 76% | 1016 hPa | - | - | - | - |
| 1777947512 | 5° C | 76% | 1016 hPa | - | - | - | - |
| 1777946612 | 5° C | 76% | 1016 hPa | - | - | - | - |
| 1777945712 | 6.11° C | 71% | 1016 hPa | - | - | - | - |
| 1777944813 | 6.11° C | 71% | 1016 hPa | - | - | - | - |
| 1777943912 | 7.22° C | 66% | 1016 hPa | - | - | - | - |
| 1777943013 | 7.22° C | 66% | 1016 hPa | - | - | - | - |
| 1777942112 | 7.22° C | 66% | 1016 hPa | - | - | - | - |
| 1777941212 | 7.22° C | 66% | 1016 hPa | - | - | - | - |
| 1777940313 | 7.78° C | 66% | 1016 hPa | - | - | - | - |
| 1777939413 | 7.78° C | 66% | 1016 hPa | - | - | - | - |
| 1777938513 | 8.89° C | 62% | 1016 hPa | - | - | - | - |
| 1777937612 | 8.89° C | 62% | 1016 hPa | - | - | - | - |
| 1777936713 | 11.11° C | 54% | 1016 hPa | - | - | - | - |
| 1777935812 | 11.11° C | 54% | 1016 hPa | - | - | - | - |
* Rain since midnight (hover to see other rain measurements)
** Current wind speed in m/s (hover to see current wind gust speed)